Naha Airport
ROAH : now visible

Airfield :











YOU CAN JOIN US ON...

 
LOGIN :

Register | Disclaimer

   EN    FR    IT 

 









Legend :    VFR   Marginal VFR   IFR   Intensive IFR   Very Intensive IFR
Visi :
Ceiling :
>= 8 km
>= 3000ft
5 to 8 km
1000 to 3000 ft
1500m to 5 km
500 to 1000 ft
800 to 1500m
200 to 500 ft
< 800m
< 200 ft
Symbols :   Thunderstorms  Fog  Heavy snow  Heavy precipitations  Wind > 20 kt






- Airport Elevation : 12 ft
- IATA code : OKA


ROAH - Naha

CURRENT METAR :
  • 280400Z 36016KT 9999 FEW021 BKN050 31/25 Q1005 RMK 2CU021 5SC050 A2970

EXPIRED METARs :
  • 280330Z 36018KT 9999 FEW021 30/25 Q1006 RMK 1CU021 A2972
  • 280300Z 36017KT 9999 FEW021 30/25 Q1006 RMK 1CU021 A2973
  • 280230Z 36016KT 9999 SCT021 30/25 Q1007 RMK 3CU021 A2974
  • 280200Z 36015KT 9999 FEW022 30/24 Q1007
  • 280130Z 36015KT 9999 FEW022 30/24 Q1007

TAF TAF ROAH
Valid from the 28 at 00:00 until the 29 at 06:00 UTC


272305Z 2800/2906 02014KT 9999 FEW015 SCT025
RJJJ FIR / Asia



MET'MAP, your aeronautical weather chart ! - Copyright ORBIFLY December 2007 - Disclaimer

ORBIFLY MET'MAP TEAM :

Programming & Development : Alexandra Zaïnal
Concept & original design : Baudouin d'Aumeries
Assistance for programming : Marc-Olivier Méhu
Technical & hardware support : Manuel Goepfert

Contact : metmap@orbifly.com




SOURCES & CREDITS :

   NOAA       Earth
Advisory